FBSK/GBE METAR and TAF weather

Enter ICAO airport designator
Station Type Date Time Source
FBSK METAR 2020/07/15 00:00 UTC NOAA

FBSK 150000Z 18007KT CAVOK 06/M05 Q1030 NOSIG


Station Type Date Time Source
FBSK Decoded METAR 2020/07/15 00:00 UTC NOAA

Seretse Khama International Airport, Botswana (FBSK) 24-13S 025-55E 1005M
Jul 14, 2020 - 08:00 PM EDT / 2020.07.15 0000 UTC
Wind: from the S (180 degrees) at 8 MPH (7 KT):0
Visibility: greater than 7 mile(s):0
Temperature: 42 F (6 C)
Dew Point: 23 F (-5 C)
Relative Humidity: 45%
Pressure (altimeter): 30.42 in. Hg (1030 hPa)
ob: FBSK 150000Z 18007KT CAVOK 06/M05 Q1030 NOSIG
cycle: 0

Station Type Date Time Source
FBSK TAF 2020/07/14 18:35 UTC NOAA

TAF FBSK 141500Z 1418/1524 17010G20KT CAVOK

Example: see airport list